Time;durP1;ratioP1;P1;durP2;ratioP2;P2;SDS_P1;SDS_P2;PMS_P1;PMS_P2;Temp;Humidity;BMP_temperature;BMP_pressure;BME280_temperature;BME280_humidity;BME280_pressure;Samples;Min_cycle;Max_cycle;Signal;HPM_P1;HPM_P2
2023/09/17 00:02:01;;;;;;;;;;;;;;;;;;5001133;28;20012;-81
2023/09/17 00:04:27;;;;;;;;;;;;;;;;;;5008575;28;20000;-81
2023/09/17 00:06:53;;;;;;;;;;;;;;;;;;5026275;28;19928;-82
2023/09/17 00:09:19;;;;;;;;;;;;;;;;;;5020283;28;19917;-81
2023/09/17 00:11:44;;;;;;;;;;;;;;;;;;5019747;28;20405;-81
2023/09/17 00:14:10;;;;;;;;;;;;;;;;;;5001648;28;20463;-81
2023/09/17 00:16:38;;;;;;;;;;;;;;;;;;5010786;28;19921;-81
2023/09/17 00:19:04;;;;;;;;;;;;;;;;;;5010947;28;19971;-81
2023/09/17 00:21:30;;;;;;;;;;;;;;;;;;5000834;28;19951;-81
2023/09/17 00:23:56;;;;;;;;;;;;;;;;;;4996375;28;19917;-81
2023/09/17 00:26:22;;;;;;;;;;;;;;;;;;5011254;28;20080;-81
2023/09/17 00:28:49;;;;;;;;;;;;;;;;;;4999589;28;19968;-80
2023/09/17 00:31:15;;;;;;;;;;;;;;;;;;5017969;28;19913;-81
2023/09/17 00:33:41;;;;;;;;;;;;;;;;;;5005821;28;19948;-79
2023/09/17 00:36:07;;;;;;;;;;;;;;;;;;5009883;28;19925;-80
2023/09/17 00:38:33;;;;;;;;;;;;;;;;;;5010612;28;20263;-79
2023/09/17 00:40:59;;;;;;;;;;;;;;;;;;5012123;28;20301;-79
2023/09/17 00:43:25;;;;;;;;;;;;;;;;;;5005548;28;20408;-79
2023/09/17 00:45:51;;;;;;;;;;;;;;;;;;5017048;28;19915;-79
2023/09/17 00:48:17;;;;;;;;;;;;;;;;;;5009205;28;19917;-80
2023/09/17 00:50:43;;;;;;;;;;;;;;;;;;5012154;28;20134;-80
2023/09/17 00:53:09;;;;;;;;;;;;;;;;;;5003860;28;19913;-80
2023/09/17 00:55:35;;;;;;;;;;;;;;;;;;5003789;28;19946;-79
2023/09/17 00:58:01;;;;;;;;;;;;;;;;;;5008975;28;19940;-80
2023/09/17 01:00:26;;;;;;;;;;;;;;;;;;5011437;28;20012;-80
2023/09/17 01:02:52;;;;;;;;;;;;;;;;;;5004317;28;20357;-79
2023/09/17 01:05:18;;;;;;;;;;;;;;;;;;5017260;28;19913;-79
2023/09/17 01:07:44;;;;;;;;;;;;;;;;;;5007130;28;20277;-80
2023/09/17 01:10:10;;;;;;;;;;;;;;;;;;5010184;28;19960;-80
2023/09/17 01:12:36;;;;;;;;;;;;;;;;;;5005162;28;19913;-79
2023/09/17 01:15:02;;;;;;;;;;;;;;;;;;5000330;28;20364;-80
2023/09/17 01:17:30;;;;;;;;;;;;;;;;;;5004418;28;20307;-80
2023/09/17 01:19:56;;;;;;;;;;;;;;;;;;5009054;28;19913;-80
2023/09/17 01:22:22;;;;;;;;;;;;;;;;;;5008950;28;19936;-80
2023/09/17 01:24:48;;;;;;;;;;;;;;;;;;5023940;28;19913;-80
2023/09/17 01:27:14;;;;;;;;;;;;;;;;;;5014710;28;20009;-80
2023/09/17 01:29:40;;;;;;;;;;;;;;;;;;5021587;28;19917;-81
2023/09/17 01:32:06;;;;;;;;;;;;;;;;;;5006456;28;19916;-80
2023/09/17 01:34:32;;;;;;;;;;;;;;;;;;5004831;28;19917;-80
2023/09/17 01:36:58;;;;;;;;;;;;;;;;;;5013416;28;19927;-81
2023/09/17 01:39:24;;;;;;;;;;;;;;;;;;5013199;28;19917;-80
2023/09/17 01:41:50;;;;;;;;;;;;;;;;;;5025289;28;19924;-81
2023/09/17 01:44:16;;;;;;;;;;;;;;;;;;5012565;28;19952;-81
2023/09/17 01:46:42;;;;;;;;;;;;;;;;;;5013499;28;20297;-80
2023/09/17 01:49:09;;;;;;;;;;;;;;;;;;5008047;28;20557;-81
2023/09/17 01:51:35;;;;;;;;;;;;;;;;;;5000520;28;19913;-80
2023/09/17 01:54:01;;;;;;;;;;;;;;;;;;5002635;28;19921;-80
2023/09/17 01:56:27;;;;;;;;;;;;;;;;;;5027420;28;19980;-80
2023/09/17 01:58:53;;;;;;;;;;;;;;;;;;5009699;28;19999;-81
2023/09/17 02:01:19;;;;;;;;;;;;;;;;;;5006914;28;19917;-81
2023/09/17 02:03:45;;;;;;;;;;;;;;;;;;5010009;28;19959;-81
2023/09/17 02:06:11;;;;;;;;;;;;;;;;;;5015374;28;20305;-81
2023/09/17 02:08:37;;;;;;;;;;;;;;;;;;5011448;28;20008;-81
2023/09/17 02:11:04;;;;;;;;;;;;;;;;;;5011265;28;20246;-80
2023/09/17 02:13:30;;;;;;;;;;;;;;;;;;5010008;28;19920;-80
2023/09/17 02:15:56;;;;;;;;;;;;;;;;;;5007967;28;20289;-81
2023/09/17 02:18:22;;;;;;;;;;;;;;;;;;5006386;28;19924;-80
2023/09/17 02:20:48;;;;;;;;;;;;;;;;;;5027750;28;20354;-81
2023/09/17 02:23:14;;;;;;;;;;;;;;;;;;5016894;28;19909;-80
2023/09/17 02:25:40;;;;;;;;;;;;;;;;;;5011587;28;19915;-82
2023/09/17 02:28:07;;;;;;;;;;;;;;;;;;5004622;28;19920;-80
2023/09/17 02:30:33;;;;;;;;;;;;;;;;;;5005173;28;19913;-81
2023/09/17 02:32:59;;;;;;;;;;;;;;;;;;5006915;28;19929;-80
2023/09/17 02:35:25;;;;;;;;;;;;;;;;;;5014966;28;19915;-82
2023/09/17 02:37:51;;;;;;;;;;;;;;;;;;5009241;28;19960;-81
2023/09/17 02:40:16;;;;;;;;;;;;;;;;;;5011897;28;20005;-81
2023/09/17 02:42:42;;;;;;;;;;;;;;;;;;5012759;28;19920;-80
2023/09/17 02:45:09;;;;;;;;;;;;;;;;;;5013932;28;19959;-81
2023/09/17 02:47:35;;;;;;;;;;;;;;;;;;5014453;28;19909;-81
2023/09/17 02:50:00;;;;;;;;;;;;;;;;;;5029441;28;19991;-81
2023/09/17 02:52:26;;;;;;;;;;;;;;;;;;5021684;28;20094;-82
2023/09/17 02:54:52;;;;;;;;;;;;;;;;;;4997435;28;19924;-81
2023/09/17 02:57:18;;;;;;;;;;;;;;;;;;5017165;28;20001;-81
2023/09/17 02:59:44;;;;;;;;;;;;;;;;;;5016401;28;19917;-81
2023/09/17 03:02:10;;;;;;;;;;;;;;;;;;5005974;28;20032;-81
2023/09/17 03:04:36;;;;;;;;;;;;;;;;;;5020499;28;19917;-79
2023/09/17 03:07:04;;;;;;;;;;;;;;;;;;5013595;28;19913;-81
2023/09/17 03:09:30;;;;;;;;;;;;;;;;;;5011199;28;20321;-81
2023/09/17 03:11:56;;;;;;;;;;;;;;;;;;5010015;28;19972;-81
2023/09/17 03:14:22;;;;;;;;;;;;;;;;;;5013917;28;19939;-81
2023/09/17 03:16:48;;;;;;;;;;;;;;;;;;5011378;28;19921;-81
2023/09/17 03:19:14;;;;;;;;;;;;;;;;;;5009945;28;19917;-81
2023/09/17 03:21:40;;;;;;;;;;;;;;;;;;5010568;28;20015;-81
2023/09/17 03:24:06;;;;;;;;;;;;;;;;;;5005537;28;19920;-81
2023/09/17 03:26:32;;;;;;;;;;;;;;;;;;5011262;28;19917;-81
2023/09/17 03:28:58;;;;;;;;;;;;;;;;;;5003689;28;20759;-79
2023/09/17 03:31:24;;;;;;;;;;;;;;;;;;4997353;28;19941;-80
2023/09/17 03:33:50;;;;;;;;;;;;;;;;;;5004767;28;20008;-81
2023/09/17 03:36:16;;;;;;;;;;;;;;;;;;5018828;28;19913;-81
2023/09/17 03:38:42;;;;;;;;;;;;;;;;;;5009124;28;19944;-81
2023/09/17 03:41:08;;;;;;;;;;;;;;;;;;5012970;28;19919;-81
2023/09/17 03:43:34;;;;;;;;;;;;;;;;;;5016957;28;19913;-81
2023/09/17 03:46:00;;;;;;;;;;;;;;;;;;5001810;28;19913;-81
2023/09/17 03:48:26;;;;;;;;;;;;;;;;;;5014151;28;20083;-81
2023/09/17 03:50:52;;;;;;;;;;;;;;;;;;5014200;28;20036;-81
2023/09/17 03:53:18;;;;;;;;;;;;;;;;;;5011125;28;20880;-80
2023/09/17 03:55:45;;;;;;;;;;;;;;;;;;5006843;28;19921;-81
2023/09/17 03:58:11;;;;;;;;;;;;;;;;;;5003864;28;20284;-80
2023/09/17 04:00:37;;;;;;;;;;;;;;;;;;5005407;28;20004;-81
2023/09/17 04:03:05;;;;;;;;;;;;;;;;;;4996796;28;20790;-81
2023/09/17 04:05:31;;;;;;;;;;;;;;;;;;5001944;28;19917;-81
2023/09/17 04:07:57;;;;;;;;;;;;;;;;;;5010831;28;19924;-81
2023/09/17 04:10:23;;;;;;;;;;;;;;;;;;5009210;28;20286;-80
2023/09/17 04:12:48;;;;;;;;;;;;;;;;;;5021591;28;20051;-81
2023/09/17 04:15:19;;;;;;;;;;;;;;;;;;5005984;28;20011;-81
2023/09/17 04:17:45;;;;;;;;;;;;;;;;;;5007328;28;19913;-81
2023/09/17 04:20:13;;;;;;;;;;;;;;;;;;5002106;28;19939;-81
2023/09/17 04:22:39;;;;;;;;;;;;;;;;;;4999771;28;19921;-81
2023/09/17 04:25:05;;;;;;;;;;;;;;;;;;5008349;28;20008;-81
2023/09/17 04:27:32;;;;;;;;;;;;;;;;;;5000342;28;20289;-82
2023/09/17 04:29:57;;;;;;;;;;;;;;;;;;5004092;28;20621;-81
2023/09/17 04:32:23;;;;;;;;;;;;;;;;;;5020542;28;19924;-80
2023/09/17 04:34:49;;;;;;;;;;;;;;;;;;5000173;28;19913;-81
2023/09/17 04:37:19;;;;;;;;;;;;;;;;;;5013612;28;20004;-80
2023/09/17 04:39:46;;;;;;;;;;;;;;;;;;5000674;28;20035;-80
2023/09/17 04:42:12;;;;;;;;;;;;;;;;;;5006203;28;19960;-81
2023/09/17 04:44:38;;;;;;;;;;;;;;;;;;5001575;28;20303;-81
2023/09/17 04:47:04;;;;;;;;;;;;;;;;;;5007712;28;19913;-81
2023/09/17 04:49:31;;;;;;;;;;;;;;;;;;5020492;28;19924;-81
2023/09/17 04:51:57;;;;;;;;;;;;;;;;;;5021814;28;20365;-81
2023/09/17 04:54:23;;;;;;;;;;;;;;;;;;5007742;28;19921;-80
2023/09/17 04:56:49;;;;;;;;;;;;;;;;;;5023774;28;20407;-80
2023/09/17 04:59:15;;;;;;;;;;;;;;;;;;5010123;28;19921;-81
2023/09/17 05:01:41;;;;;;;;;;;;;;;;;;5005893;28;19956;-79
2023/09/17 05:04:07;;;;;;;;;;;;;;;;;;5002249;28;19921;-81
2023/09/17 05:06:33;;;;;;;;;;;;;;;;;;5005330;28;20343;-80
2023/09/17 05:08:59;;;;;;;;;;;;;;;;;;5002394;28;19921;-81
2023/09/17 05:11:25;;;;;;;;;;;;;;;;;;5006294;28;20365;-80
2023/09/17 05:13:50;;;;;;;;;;;;;;;;;;5007249;28;19917;-80
2023/09/17 05:16:17;;;;;;;;;;;;;;;;;;5013074;28;19995;-79
2023/09/17 05:18:43;;;;;;;;;;;;;;;;;;5005069;28;20377;-80
2023/09/17 05:21:09;;;;;;;;;;;;;;;;;;5003192;28;19989;-80
2023/09/17 05:23:35;;;;;;;;;;;;;;;;;;5001961;28;19913;-79
2023/09/17 05:26:01;;;;;;;;;;;;;;;;;;5004660;28;20075;-81
2023/09/17 05:28:27;;;;;;;;;;;;;;;;;;5019907;28;20314;-80
2023/09/17 05:30:53;;;;;;;;;;;;;;;;;;5006261;28;19917;-80
2023/09/17 05:33:19;;;;;;;;;;;;;;;;;;4999654;28;20301;-80
2023/09/17 05:35:45;;;;;;;;;;;;;;;;;;5005636;28;20289;-80
2023/09/17 05:38:11;;;;;;;;;;;;;;;;;;5002943;28;19940;-80
2023/09/17 05:40:36;;;;;;;;;;;;;;;;;;5002260;28;19975;-81
2023/09/17 05:43:02;;;;;;;;;;;;;;;;;;5002369;28;19917;-80
2023/09/17 05:45:28;;;;;;;;;;;;;;;;;;5008438;28;19916;-82
2023/09/17 05:47:54;;;;;;;;;;;;;;;;;;5007717;28;19964;-82
2023/09/17 05:50:20;;;;;;;;;;;;;;;;;;5021934;28;19913;-81
2023/09/17 05:52:46;;;;;;;;;;;;;;;;;;5004850;28;20065;-80
2023/09/17 05:55:12;;;;;;;;;;;;;;;;;;5006754;28;19951;-80
2023/09/17 05:57:38;;;;;;;;;;;;;;;;;;5007375;28;19913;-80
2023/09/17 06:00:04;;;;;;;;;;;;;;;;;;5004958;28;19924;-80
2023/09/17 06:02:30;;;;;;;;;;;;;;;;;;5009891;28;20513;-80
2023/09/17 06:04:56;;;;;;;;;;;;;;;;;;5015423;28;19971;-79
2023/09/17 06:07:22;;;;;;;;;;;;;;;;;;5007959;28;20578;-81
2023/09/17 06:09:48;;;;;;;;;;;;;;;;;;4995015;28;19924;-79
2023/09/17 06:12:15;;;;;;;;;;;;;;;;;;5007274;28;20023;-80
2023/09/17 06:14:41;;;;;;;;;;;;;;;;;;5015553;28;19951;-80
2023/09/17 06:17:07;;;;;;;;;;;;;;;;;;5008667;28;19945;-80
2023/09/17 06:19:33;;;;;;;;;;;;;;;;;;5006026;28;20365;-80
2023/09/17 06:21:59;;;;;;;;;;;;;;;;;;5010165;28;19921;-80
2023/09/17 06:24:24;;;;;;;;;;;;;;;;;;5017471;28;19909;-79
2023/09/17 06:26:50;;;;;;;;;;;;;;;;;;5007720;28;20296;-79
2023/09/17 06:29:16;;;;;;;;;;;;;;;;;;5001685;28;19925;-81
2023/09/17 06:31:42;;;;;;;;;;;;;;;;;;5004341;28;20352;-79
2023/09/17 06:34:09;;;;;;;;;;;;;;;;;;5025511;28;19935;-80
2023/09/17 06:36:35;;;;;;;;;;;;;;;;;;5003316;28;19917;-80
2023/09/17 06:39:01;;;;;;;;;;;;;;;;;;4998638;28;19917;-80
2023/09/17 06:41:26;;;;;;;;;;;;;;;;;;5013288;28;20529;-81
2023/09/17 06:43:52;;;;;;;;;;;;;;;;;;4998214;28;19952;-80
2023/09/17 06:46:18;;;;;;;;;;;;;;;;;;5000000;28;20554;-81
2023/09/17 06:48:44;;;;;;;;;;;;;;;;;;5008024;28;20470;-80
2023/09/17 06:51:10;;;;;;;;;;;;;;;;;;5000931;28;19921;-81
2023/09/17 06:53:36;;;;;;;;;;;;;;;;;;5002484;28;20013;-81
2023/09/17 06:56:02;;;;;;;;;;;;;;;;;;5007421;28;19920;-80
2023/09/17 06:58:28;;;;;;;;;;;;;;;;;;4999578;28;20049;-81
2023/09/17 07:00:54;;;;;;;;;;;;;;;;;;5015003;28;20216;-81
2023/09/17 07:03:20;;;;;;;;;;;;;;;;;;5000830;28;19925;-84
2023/09/17 07:05:47;;;;;;;;;;;;;;;;;;5009334;28;19913;-86
2023/09/17 07:08:13;;;;;;;;;;;;;;;;;;5003825;28;19945;-86
2023/09/17 07:10:38;;;;;;;;;;;;;;;;;;4991815;28;19957;-83
2023/09/17 07:13:05;;;;;;;;;;;;;;;;;;4997452;28;20128;-88
2023/09/17 07:15:30;;;;;;;;;;;;;;;;;;4996491;28;19920;-87
2023/09/17 07:17:56;;;;;;;;;;;;;;;;;;4997926;28;20004;-88
2023/09/17 07:20:22;;;;;;;;;;;;;;;;;;5003757;28;19946;-82
2023/09/17 07:22:49;;;;;;;;;;;;;;;;;;4999119;28;20137;-87
2023/09/17 07:25:14;;;;;;;;;;;;;;;;;;5010547;28;19968;-87
2023/09/17 07:27:40;;;;;;;;;;;;;;;;;;5004278;28;20330;-87
2023/09/17 07:30:06;;;;;;;;;;;;;;;;;;5012498;28;19913;-88
2023/09/17 07:32:32;;;;;;;;;;;;;;;;;;5003423;28;19913;-86
2023/09/17 07:35:01;;;;;;;;;;;;;;;;;;5003349;28;19913;-88
2023/09/17 07:37:27;;;;;;;;;;;;;;;;;;5003814;28;19913;-87
2023/09/17 07:39:53;;;;;;;;;;;;;;;;;;5001652;28;19943;-86
2023/09/17 07:42:19;;;;;;;;;;;;;;;;;;5013156;28;19959;-87
2023/09/17 07:44:45;;;;;;;;;;;;;;;;;;5010481;28;20302;-87
2023/09/17 07:47:12;;;;;;;;;;;;;;;;;;5011745;28;19909;-87
2023/09/17 07:49:38;;;;;;;;;;;;;;;;;;5009854;28;20368;-86
2023/09/17 07:52:03;;;;;;;;;;;;;;;;;;5002322;28;19996;-84
2023/09/17 07:54:32;;;;;;;;;;;;;;;;;;5003174;28;19918;-88
2023/09/17 07:56:58;;;;;;;;;;;;;;;;;;5015636;28;20273;-86
2023/09/17 07:59:24;;;;;;;;;;;;;;;;;;5010008;28;19925;-83
2023/09/17 08:01:51;;;;;;;;;;;;;;;;;;5001642;28;19909;-86
2023/09/17 08:04:17;;;;;;;;;;;;;;;;;;5004265;28;19921;-85
2023/09/17 08:06:43;;;;;;;;;;;;;;;;;;5007656;28;19924;-81
2023/09/17 08:09:09;;;;;;;;;;;;;;;;;;5005727;28;20122;-88
2023/09/17 08:11:34;;;;;;;;;;;;;;;;;;5019688;28;20023;-88
2023/09/17 08:14:00;;;;;;;;;;;;;;;;;;5005439;28;20039;-88
2023/09/17 08:16:26;;;;;;;;;;;;;;;;;;5002878;28;19955;-88
2023/09/17 08:18:52;;;;;;;;;;;;;;;;;;5006585;28;19928;-85
2023/09/17 08:21:18;;;;;;;;;;;;;;;;;;5002071;28;19921;-85
2023/09/17 08:23:44;;;;;;;;;;;;;;;;;;5002528;28;20336;-87
2023/09/17 08:26:10;;;;;;;;;;;;;;;;;;5010130;28;19917;-88
2023/09/17 08:28:37;;;;;;;;;;;;;;;;;;5008325;28;19913;-87
2023/09/17 08:31:03;;;;;;;;;;;;;;;;;;5000206;28;20908;-83
2023/09/17 08:33:29;;;;;;;;;;;;;;;;;;5007172;28;20003;-85
2023/09/17 08:35:55;;;;;;;;;;;;;;;;;;5004762;28;20005;-87
2023/09/17 08:38:22;;;;;;;;;;;;;;;;;;5005420;28;20023;-81
2023/09/17 08:40:47;;;;;;;;;;;;;;;;;;5007351;28;19921;-85
2023/09/17 08:43:13;;;;;;;;;;;;;;;;;;4999350;28;19917;-84
2023/09/17 08:45:41;;;;;;;;;;;;;;;;;;5003892;28;19918;-86
2023/09/17 08:48:07;;;;;;;;;;;;;;;;;;5007073;28;20017;-87
2023/09/17 08:50:33;;;;;;;;;;;;;;;;;;5004879;28;19919;-87
2023/09/17 08:52:59;;;;;;;;;;;;;;;;;;5006314;28;20277;-87
2023/09/17 08:55:27;;;;;;;;;;;;;;;;;;5017902;28;20196;-87
2023/09/17 08:57:53;;;;;;;;;;;;;;;;;;4989492;28;19913;-82
2023/09/17 09:00:19;;;;;;;;;;;;;;;;;;5012101;28;19928;-83
2023/09/17 09:02:45;;;;;;;;;;;;;;;;;;5004272;28;19910;-82
2023/09/17 09:05:11;;;;;;;;;;;;;;;;;;5001694;28;19921;-82
2023/09/17 09:07:37;;;;;;;;;;;;;;;;;;4999490;28;20024;-83
2023/09/17 09:10:03;;;;;;;;;;;;;;;;;;5008837;28;20016;-81
2023/09/17 09:12:29;;;;;;;;;;;;;;;;;;5008875;28;20866;-82
2023/09/17 09:14:55;;;;;;;;;;;;;;;;;;5023551;28;20423;-82
2023/09/17 09:17:21;;;;;;;;;;;;;;;;;;5004114;28;19914;-83
2023/09/17 09:19:47;;;;;;;;;;;;;;;;;;5006991;28;20004;-84
2023/09/17 09:22:13;;;;;;;;;;;;;;;;;;5002745;28;19917;-83
2023/09/17 09:24:39;;;;;;;;;;;;;;;;;;5007702;28;19963;-83
2023/09/17 09:27:06;;;;;;;;;;;;;;;;;;4997455;28;20337;-80
2023/09/17 09:29:32;;;;;;;;;;;;;;;;;;5004090;28;20000;-83
2023/09/17 09:31:58;;;;;;;;;;;;;;;;;;5001492;28;20338;-82
2023/09/17 09:34:24;;;;;;;;;;;;;;;;;;5004473;28;19913;-82
2023/09/17 09:36:50;;;;;;;;;;;;;;;;;;5011565;28;20285;-83
2023/09/17 09:39:16;;;;;;;;;;;;;;;;;;5006528;28;19914;-83
2023/09/17 09:41:42;;;;;;;;;;;;;;;;;;5011141;28;19963;-77
2023/09/17 09:44:08;;;;;;;;;;;;;;;;;;5005716;28;19971;-79
2023/09/17 09:46:34;;;;;;;;;;;;;;;;;;5005821;28;19997;-81
2023/09/17 09:49:00;;;;;;;;;;;;;;;;;;4997232;28;19989;-81
2023/09/17 09:51:29;;;;;;;;;;;;;;;;;;5007262;28;19917;-83
2023/09/17 09:53:55;;;;;;;;;;;;;;;;;;5004459;28;20308;-84
2023/09/17 09:56:27;;;;;;;;;;;;;;;;;;5000191;28;19918;-84
2023/09/17 09:58:53;;;;;;;;;;;;;;;;;;4997321;28;19918;-84
2023/09/17 10:01:19;;;;;;;;;;;;;;;;;;5005946;28;20422;-83
2023/09/17 10:03:47;;;;;;;;;;;;;;;;;;5002927;28;19967;-81
2023/09/17 10:06:13;;;;;;;;;;;;;;;;;;5003434;28;19944;-83
2023/09/17 10:08:39;;;;;;;;;;;;;;;;;;5004787;28;19925;-82
2023/09/17 10:11:05;;;;;;;;;;;;;;;;;;4999591;28;19909;-81
2023/09/17 10:13:31;;;;;;;;;;;;;;;;;;5009585;28;20223;-84
2023/09/17 10:15:58;;;;;;;;;;;;;;;;;;5018452;28;19913;-86
2023/09/17 10:18:24;;;;;;;;;;;;;;;;;;5028743;28;19992;-82
2023/09/17 10:20:51;;;;;;;;;;;;;;;;;;5013842;28;19917;-83
2023/09/17 10:23:17;;;;;;;;;;;;;;;;;;5002903;28;19913;-82
2023/09/17 10:25:42;;;;;;;;;;;;;;;;;;5012467;28;20432;-82
2023/09/17 10:28:08;;;;;;;;;;;;;;;;;;5010131;28;19913;-86
2023/09/17 10:30:34;;;;;;;;;;;;;;;;;;5017447;28;20028;-81
2023/09/17 10:33:01;;;;;;;;;;;;;;;;;;5024003;28;19932;-80
2023/09/17 10:35:27;;;;;;;;;;;;;;;;;;4997668;28;19987;-81
2023/09/17 10:37:55;;;;;;;;;;;;;;;;;;5018247;28;20424;-86
2023/09/17 10:40:21;;;;;;;;;;;;;;;;;;5002313;28;20022;-84
2023/09/17 10:42:47;;;;;;;;;;;;;;;;;;5014665;28;20392;-86
2023/09/17 10:45:13;;;;;;;;;;;;;;;;;;5014503;28;19918;-83
2023/09/17 10:47:39;;;;;;;;;;;;;;;;;;5009813;28;19932;-82
2023/09/17 10:50:06;;;;;;;;;;;;;;;;;;5011454;28;19909;-85
2023/09/17 10:52:36;;;;;;;;;;;;;;;;;;5005410;28;19924;-91
2023/09/17 10:55:02;;;;;;;;;;;;;;;;;;5014492;28;19920;-88
2023/09/17 10:57:28;;;;;;;;;;;;;;;;;;5004528;28;19932;-91
2023/09/17 10:59:55;;;;;;;;;;;;;;;;;;5009148;28;19917;-88
2023/09/17 11:02:20;;;;;;;;;;;;;;;;;;5009540;28;19913;-89
2023/09/17 11:04:46;;;;;;;;;;;;;;;;;;5008096;28;20088;-89
2023/09/17 11:07:12;;;;;;;;;;;;;;;;;;5012263;28;20403;-90
2023/09/17 11:09:38;;;;;;;;;;;;;;;;;;5015212;28;19913;-90
2023/09/17 11:12:04;;;;;;;;;;;;;;;;;;5001933;28;19917;-89
2023/09/17 11:14:30;;;;;;;;;;;;;;;;;;5016444;28;19956;-87
2023/09/17 11:16:56;;;;;;;;;;;;;;;;;;5010821;28;19953;-89
2023/09/17 11:19:22;;;;;;;;;;;;;;;;;;5012306;28;20368;-87
2023/09/17 11:21:48;;;;;;;;;;;;;;;;;;5006832;28;19913;-90
2023/09/17 11:24:17;;;;;;;;;;;;;;;;;;4998216;28;19913;-90
2023/09/17 11:26:45;;;;;;;;;;;;;;;;;;5020068;28;19916;-87
2023/09/17 11:29:10;;;;;;;;;;;;;;;;;;5014964;28;19913;-89
2023/09/17 11:31:37;;;;;;;;;;;;;;;;;;5004385;28;19932;-89
2023/09/17 11:34:03;;;;;;;;;;;;;;;;;;5005031;28;20015;-88
2023/09/17 11:36:31;;;;;;;;;;;;;;;;;;5009180;28;19913;-89
2023/09/17 11:38:57;;;;;;;;;;;;;;;;;;5002155;28;21392;-90
2023/09/17 11:41:23;;;;;;;;;;;;;;;;;;5007254;28;20421;-86
2023/09/17 11:43:49;;;;;;;;;;;;;;;;;;5015281;28;19924;-89
2023/09/17 11:46:14;;;;;;;;;;;;;;;;;;5014789;28;20920;-89
2023/09/17 11:48:44;;;;;;;;;;;;;;;;;;5023545;28;19968;-86
2023/09/17 11:51:09;;;;;;;;;;;;;;;;;;5031223;28;19924;-86
2023/09/17 11:53:35;;;;;;;;;;;;;;;;;;5023172;28;19897;-88
2023/09/17 11:56:01;;;;;;;;;;;;;;;;;;5009738;28;19956;-88
2023/09/17 11:58:32;;;;;;;;;;;;;;;;;;5012081;28;19966;-88
2023/09/17 12:00:58;;;;;;;;;;;;;;;;;;5010193;28;20227;-88
2023/09/17 12:03:23;;;;;;;;;;;;;;;;;;5002648;28;20007;-88
2023/09/17 12:05:49;;;;;;;;;;;;;;;;;;5004217;28;20015;-88
2023/09/17 12:08:15;;;;;;;;;;;;;;;;;;4995409;28;19913;-89
2023/09/17 12:10:49;;;;;;;;;;;;;;;;;;5011806;28;19928;-88
2023/09/17 12:13:15;;;;;;;;;;;;;;;;;;5015263;28;20372;-87
2023/09/17 12:15:41;;;;;;;;;;;;;;;;;;5013464;28;20016;-88
2023/09/17 12:18:08;;;;;;;;;;;;;;;;;;5014744;28;20308;-89
2023/09/17 12:20:51;;;;;;;;;;;;;;;;;;5008285;28;19921;-90
2023/09/17 12:23:24;;;;;;;;;;;;;;;;;;5003255;28;19909;-85
2023/09/17 12:25:50;;;;;;;;;;;;;;;;;;5008586;28;19917;-88
2023/09/17 12:28:15;;;;;;;;;;;;;;;;;;5003392;28;19909;-88
2023/09/17 12:30:41;;;;;;;;;;;;;;;;;;5024511;28;19913;-87
2023/09/17 12:33:07;;;;;;;;;;;;;;;;;;4998834;28;19964;-89
2023/09/17 12:35:35;;;;;;;;;;;;;;;;;;5009308;28;19967;-87
2023/09/17 12:38:01;;;;;;;;;;;;;;;;;;5005478;28;19909;-89
2023/09/17 12:40:27;;;;;;;;;;;;;;;;;;4996089;28;19914;-89
2023/09/17 12:42:53;;;;;;;;;;;;;;;;;;5010528;28;20401;-89
2023/09/17 12:45:19;;;;;;;;;;;;;;;;;;5005375;28;19914;-89
2023/09/17 12:47:45;;;;;;;;;;;;;;;;;;5009105;28;19916;-88
2023/09/17 12:50:12;;;;;;;;;;;;;;;;;;5010322;28;20007;-89
2023/09/17 12:52:38;;;;;;;;;;;;;;;;;;5015080;28;20251;-89
2023/09/17 12:55:04;;;;;;;;;;;;;;;;;;5004058;28;19924;-89
2023/09/17 12:57:30;;;;;;;;;;;;;;;;;;5003319;28;19922;-90
2023/09/17 12:59:56;;;;;;;;;;;;;;;;;;5007970;28;19979;-89
2023/09/17 13:02:22;;;;;;;;;;;;;;;;;;5008107;28;20668;-88
2023/09/17 13:04:48;;;;;;;;;;;;;;;;;;5020587;28;20380;-90
2023/09/17 13:07:14;;;;;;;;;;;;;;;;;;5005203;28;19913;-87
2023/09/17 13:09:40;;;;;;;;;;;;;;;;;;4991159;28;20486;-90
2023/09/17 13:12:06;;;;;;;;;;;;;;;;;;5001311;28;20012;-90
2023/09/17 13:14:32;;;;;;;;;;;;;;;;;;5017976;28;19909;-90
2023/09/17 13:16:58;;;;;;;;;;;;;;;;;;5017467;28;19948;-89
2023/09/17 13:19:24;;;;;;;;;;;;;;;;;;5009077;28;20349;-89
2023/09/17 13:21:50;;;;;;;;;;;;;;;;;;5000447;28;19913;-89
2023/09/17 13:24:16;;;;;;;;;;;;;;;;;;4995693;28;20377;-89
2023/09/17 13:26:43;;;;;;;;;;;;;;;;;;5009305;28;19914;-87
2023/09/17 13:29:08;;;;;;;;;;;;;;;;;;5006394;28;19913;-88
2023/09/17 13:31:36;;;;;;;;;;;;;;;;;;4998899;28;19960;-88
2023/09/17 13:34:02;;;;;;;;;;;;;;;;;;5013154;28;20270;-89
2023/09/17 13:36:28;;;;;;;;;;;;;;;;;;5009889;28;20111;-87
2023/09/17 13:38:54;;;;;;;;;;;;;;;;;;5002423;28;19913;-89
2023/09/17 13:41:20;;;;;;;;;;;;;;;;;;5001368;28;20012;-86
2023/09/17 13:43:46;;;;;;;;;;;;;;;;;;5014334;28;19995;-87
2023/09/17 13:46:12;;;;;;;;;;;;;;;;;;5003522;28;19917;-86
2023/09/17 13:48:38;;;;;;;;;;;;;;;;;;5000997;28;19956;-89
2023/09/17 13:51:04;;;;;;;;;;;;;;;;;;5007227;28;19909;-88
2023/09/17 13:53:30;;;;;;;;;;;;;;;;;;5002146;28;19925;-89
2023/09/17 13:55:56;;;;;;;;;;;;;;;;;;4992783;28;19913;-90
2023/09/17 13:58:22;;;;;;;;;;;;;;;;;;5012992;28;19952;-90
2023/09/17 14:00:49;;;;;;;;;;;;;;;;;;4999227;28;20019;-90
2023/09/17 14:03:14;;;;;;;;;;;;;;;;;;5002141;28;20059;-89
2023/09/17 14:05:40;;;;;;;;;;;;;;;;;;5001720;28;20412;-90
2023/09/17 14:08:07;;;;;;;;;;;;;;;;;;5009373;28;19958;-90
2023/09/17 14:10:33;;;;;;;;;;;;;;;;;;4995465;28;19909;-89
2023/09/17 14:13:00;;;;;;;;;;;;;;;;;;5006425;28;19916;-89
2023/09/17 14:15:26;;;;;;;;;;;;;;;;;;5009742;28;19913;-88
2023/09/17 14:17:52;;;;;;;;;;;;;;;;;;5007422;28;19913;-89
2023/09/17 14:20:18;;;;;;;;;;;;;;;;;;5009262;28;19920;-89
2023/09/17 14:22:44;;;;;;;;;;;;;;;;;;5009816;28;19921;-89
2023/09/17 14:25:10;;;;;;;;;;;;;;;;;;5009542;28;20257;-90
2023/09/17 14:27:36;;;;;;;;;;;;;;;;;;4998913;28;20288;-90
2023/09/17 14:30:04;;;;;;;;;;;;;;;;;;5011958;28;19924;-89
2023/09/17 14:32:30;;;;;;;;;;;;;;;;;;5012524;28;20178;-89
2023/09/17 14:34:56;;;;;;;;;;;;;;;;;;5012554;28;19965;-90
2023/09/17 14:37:24;;;;;;;;;;;;;;;;;;5001264;28;20000;-89
2023/09/17 14:39:50;;;;;;;;;;;;;;;;;;5013833;28;19913;-87
2023/09/17 14:42:15;;;;;;;;;;;;;;;;;;5009052;28;19975;-87
2023/09/17 14:44:41;;;;;;;;;;;;;;;;;;5017833;28;19959;-89
2023/09/17 14:47:07;;;;;;;;;;;;;;;;;;5002659;28;19941;-87
2023/09/17 14:49:33;;;;;;;;;;;;;;;;;;5020080;28;19917;-87
2023/09/17 14:52:05;;;;;;;;;;;;;;;;;;5029234;28;19928;-90
2023/09/17 14:54:31;;;;;;;;;;;;;;;;;;5015817;28;19913;-88
2023/09/17 14:56:57;;;;;;;;;;;;;;;;;;5005834;28;19928;-88
2023/09/17 14:59:23;;;;;;;;;;;;;;;;;;5004097;28;20393;-82
2023/09/17 15:01:49;;;;;;;;;;;;;;;;;;5008781;28;20309;-83
2023/09/17 15:04:15;;;;;;;;;;;;;;;;;;5007340;28;19909;-86
2023/09/17 15:06:41;;;;;;;;;;;;;;;;;;5009864;28;19925;-83
2023/09/17 15:09:07;;;;;;;;;;;;;;;;;;4993560;28;19909;-87
2023/09/17 15:11:32;;;;;;;;;;;;;;;;;;5005802;28;19929;-86
2023/09/17 15:13:58;;;;;;;;;;;;;;;;;;5014808;28;19956;-88
2023/09/17 15:16:24;;;;;;;;;;;;;;;;;;5008516;28;19913;-84
2023/09/17 15:18:50;;;;;;;;;;;;;;;;;;5006575;28;19913;-92
2023/09/17 15:21:16;;;;;;;;;;;;;;;;;;5012914;28;20257;-88
2023/09/17 15:23:42;;;;;;;;;;;;;;;;;;5007599;28;19921;-83
2023/09/17 15:26:08;;;;;;;;;;;;;;;;;;5016510;28;20285;-92
2023/09/17 15:28:34;;;;;;;;;;;;;;;;;;5025225;28;19928;-87
2023/09/17 15:31:00;;;;;;;;;;;;;;;;;;5006187;28;19987;-87
2023/09/17 15:33:26;;;;;;;;;;;;;;;;;;5012909;28;19971;-89
2023/09/17 15:35:52;;;;;;;;;;;;;;;;;;5011315;28;19920;-91
2023/09/17 15:38:18;;;;;;;;;;;;;;;;;;5011282;28;20376;-90
2023/09/17 15:40:43;;;;;;;;;;;;;;;;;;5020440;28;19973;-89
2023/09/17 15:43:09;;;;;;;;;;;;;;;;;;5004264;28;20368;-90
2023/09/17 15:45:41;;;;;;;;;;;;;;;;;;5001395;28;19932;-87
2023/09/17 15:48:07;;;;;;;;;;;;;;;;;;5004666;28;19919;-85
2023/09/17 15:50:33;;;;;;;;;;;;;;;;;;5008683;28;19909;-87
2023/09/17 15:52:59;;;;;;;;;;;;;;;;;;5007185;28;20008;-87
2023/09/17 15:55:25;;;;;;;;;;;;;;;;;;5009907;28;19921;-87
2023/09/17 15:57:51;;;;;;;;;;;;;;;;;;5018919;28;20850;-85
2023/09/17 16:00:17;;;;;;;;;;;;;;;;;;5013624;28;19913;-87
2023/09/17 16:02:44;;;;;;;;;;;;;;;;;;4999133;28;19944;-87
2023/09/17 16:05:10;;;;;;;;;;;;;;;;;;5008028;28;20160;-87
2023/09/17 16:07:36;;;;;;;;;;;;;;;;;;5007204;28;20004;-86
2023/09/17 16:10:02;;;;;;;;;;;;;;;;;;5009834;28;20366;-84
2023/09/17 16:12:28;;;;;;;;;;;;;;;;;;5010459;28;20249;-88
2023/09/17 16:14:54;;;;;;;;;;;;;;;;;;5014078;28;19924;-85
2023/09/17 16:17:20;;;;;;;;;;;;;;;;;;5015129;28;19909;-88
2023/09/17 16:19:46;;;;;;;;;;;;;;;;;;5007148;28;19924;-88
2023/09/17 16:22:12;;;;;;;;;;;;;;;;;;5008366;28;19910;-87
2023/09/17 16:24:38;;;;;;;;;;;;;;;;;;5010822;28;19917;-87
2023/09/17 16:27:04;;;;;;;;;;;;;;;;;;5012532;28;19909;-86
2023/09/17 16:29:30;;;;;;;;;;;;;;;;;;5012641;28;20169;-88
2023/09/17 16:31:56;;;;;;;;;;;;;;;;;;5007507;28;19945;-88
2023/09/17 16:34:22;;;;;;;;;;;;;;;;;;5007007;28;19920;-90
2023/09/17 16:36:47;;;;;;;;;;;;;;;;;;4999835;28;19914;-89
2023/09/17 16:39:13;;;;;;;;;;;;;;;;;;5002978;28;19948;-85